sensor_id;sensor_type;location;lat;lon;timestamp;P1;durP1;ratioP1;P2;durP2;ratioP2
30543;SDS011;43388;46.308;4.600;2023-09-18T00:00:49;2.40;;;1.25;;
30543;SDS011;43388;46.308;4.600;2023-09-18T00:03:16;2.08;;;1.00;;
30543;SDS011;43388;46.308;4.600;2023-09-18T00:05:44;2.35;;;1.23;;
30543;SDS011;43388;46.308;4.600;2023-09-18T00:08:10;3.40;;;1.35;;
30543;SDS011;43388;46.308;4.600;2023-09-18T00:10:36;5.75;;;1.30;;
30543;SDS011;43388;46.308;4.600;2023-09-18T00:13:02;2.60;;;1.52;;
30543;SDS011;43388;46.308;4.600;2023-09-18T00:15:30;2.80;;;1.42;;
30543;SDS011;43388;46.308;4.600;2023-09-18T00:17:56;2.67;;;1.55;;
30543;SDS011;43388;46.308;4.600;2023-09-18T00:20:22;1.95;;;1.58;;
30543;SDS011;43388;46.308;4.600;2023-09-18T00:22:53;1.83;;;1.17;;
30543;SDS011;43388;46.308;4.600;2023-09-18T00:25:19;1.85;;;1.00;;
30543;SDS011;43388;46.308;4.600;2023-09-18T00:27:45;2.28;;;1.10;;
30543;SDS011;43388;46.308;4.600;2023-09-18T00:30:11;1.30;;;0.93;;
30543;SDS011;43388;46.308;4.600;2023-09-18T00:32:37;1.67;;;1.23;;
30543;SDS011;43388;46.308;4.600;2023-09-18T00:35:03;3.88;;;1.40;;
30543;SDS011;43388;46.308;4.600;2023-09-18T00:37:29;2.58;;;1.10;;
30543;SDS011;43388;46.308;4.600;2023-09-18T00:39:55;3.55;;;3.13;;
30543;SDS011;43388;46.308;4.600;2023-09-18T00:42:21;1.98;;;1.50;;
30543;SDS011;43388;46.308;4.600;2023-09-18T00:44:48;1.95;;;1.60;;
30543;SDS011;43388;46.308;4.600;2023-09-18T00:47:14;2.42;;;1.10;;
30543;SDS011;43388;46.308;4.600;2023-09-18T00:49:41;1.60;;;1.10;;
30543;SDS011;43388;46.308;4.600;2023-09-18T00:52:08;2.05;;;1.52;;
30543;SDS011;43388;46.308;4.600;2023-09-18T00:54:35;3.10;;;1.20;;
30543;SDS011;43388;46.308;4.600;2023-09-18T00:57:01;2.20;;;1.52;;
30543;SDS011;43388;46.308;4.600;2023-09-18T00:59:28;5.07;;;1.50;;
30543;SDS011;43388;46.308;4.600;2023-09-18T01:01:54;3.78;;;1.00;;
30543;SDS011;43388;46.308;4.600;2023-09-18T01:04:21;6.47;;;1.20;;
30543;SDS011;43388;46.308;4.600;2023-09-18T01:06:47;1.20;;;1.10;;
30543;SDS011;43388;46.308;4.600;2023-09-18T01:09:15;1.40;;;1.13;;
30543;SDS011;43388;46.308;4.600;2023-09-18T01:17:25;3.92;;;2.08;;
30543;SDS011;43388;46.308;4.600;2023-09-18T01:19:51;2.20;;;1.02;;
30543;SDS011;43388;46.308;4.600;2023-09-18T01:22:18;2.35;;;1.30;;
30543;SDS011;43388;46.308;4.600;2023-09-18T01:24:45;2.22;;;1.42;;
30543;SDS011;43388;46.308;4.600;2023-09-18T01:27:16;2.80;;;1.50;;
30543;SDS011;43388;46.308;4.600;2023-09-18T01:29:45;2.03;;;1.50;;
30543;SDS011;43388;46.308;4.600;2023-09-18T01:32:12;2.20;;;1.45;;
30543;SDS011;43388;46.308;4.600;2023-09-18T01:34:39;2.08;;;1.50;;
30543;SDS011;43388;46.308;4.600;2023-09-18T01:37:07;4.18;;;1.40;;
30543;SDS011;43388;46.308;4.600;2023-09-18T01:39:33;4.82;;;1.70;;
30543;SDS011;43388;46.308;4.600;2023-09-18T01:42:00;5.75;;;1.73;;
30543;SDS011;43388;46.308;4.600;2023-09-18T01:44:27;4.38;;;1.65;;
30543;SDS011;43388;46.308;4.600;2023-09-18T01:46:53;3.40;;;1.50;;
30543;SDS011;43388;46.308;4.600;2023-09-18T01:49:32;5.35;;;2.20;;
30543;SDS011;43388;46.308;4.600;2023-09-18T01:51:59;2.67;;;1.58;;
30543;SDS011;43388;46.308;4.600;2023-09-18T01:54:25;2.25;;;1.70;;
30543;SDS011;43388;46.308;4.600;2023-09-18T01:56:51;4.18;;;1.60;;
30543;SDS011;43388;46.308;4.600;2023-09-18T01:59:18;3.45;;;1.73;;
30543;SDS011;43388;46.308;4.600;2023-09-18T02:01:44;4.60;;;1.90;;
30543;SDS011;43388;46.308;4.600;2023-09-18T02:04:11;3.42;;;1.40;;
30543;SDS011;43388;46.308;4.600;2023-09-18T02:06:37;2.42;;;1.40;;
30543;SDS011;43388;46.308;4.600;2023-09-18T02:09:03;2.90;;;1.50;;
30543;SDS011;43388;46.308;4.600;2023-09-18T02:11:29;2.15;;;1.42;;
30543;SDS011;43388;46.308;4.600;2023-09-18T02:13:55;4.18;;;1.65;;
30543;SDS011;43388;46.308;4.600;2023-09-18T02:16:21;2.92;;;1.65;;
30543;SDS011;43388;46.308;4.600;2023-09-18T02:18:47;2.13;;;1.50;;
30543;SDS011;43388;46.308;4.600;2023-09-18T02:21:20;2.28;;;1.48;;
30543;SDS011;43388;46.308;4.600;2023-09-18T02:23:49;2.20;;;1.70;;
30543;SDS011;43388;46.308;4.600;2023-09-18T02:26:16;2.78;;;1.70;;
30543;SDS011;43388;46.308;4.600;2023-09-18T02:28:42;5.38;;;4.10;;
30543;SDS011;43388;46.308;4.600;2023-09-18T02:31:08;3.90;;;2.10;;
30543;SDS011;43388;46.308;4.600;2023-09-18T02:33:34;4.38;;;1.73;;
30543;SDS011;43388;46.308;4.600;2023-09-18T02:36:00;6.40;;;1.70;;
30543;SDS011;43388;46.308;4.600;2023-09-18T02:38:27;1.80;;;1.38;;
30543;SDS011;43388;46.308;4.600;2023-09-18T02:40:53;7.25;;;1.52;;
30543;SDS011;43388;46.308;4.600;2023-09-18T02:43:20;6.03;;;1.48;;
30543;SDS011;43388;46.308;4.600;2023-09-18T02:45:46;4.25;;;1.50;;
30543;SDS011;43388;46.308;4.600;2023-09-18T02:48:12;2.35;;;1.58;;
30543;SDS011;43388;46.308;4.600;2023-09-18T02:50:38;5.47;;;1.85;;
30543;SDS011;43388;46.308;4.600;2023-09-18T02:53:05;5.35;;;1.58;;
30543;SDS011;43388;46.308;4.600;2023-09-18T02:55:31;7.05;;;1.45;;
30543;SDS011;43388;46.308;4.600;2023-09-18T02:57:57;3.10;;;1.45;;
30543;SDS011;43388;46.308;4.600;2023-09-18T03:00:24;4.85;;;1.90;;
30543;SDS011;43388;46.308;4.600;2023-09-18T03:02:50;4.78;;;2.70;;
30543;SDS011;43388;46.308;4.600;2023-09-18T03:05:16;5.13;;;1.60;;
30543;SDS011;43388;46.308;4.600;2023-09-18T03:07:42;3.25;;;1.52;;
30543;SDS011;43388;46.308;4.600;2023-09-18T03:10:09;4.25;;;1.50;;
30543;SDS011;43388;46.308;4.600;2023-09-18T03:12:40;2.72;;;1.42;;
30543;SDS011;43388;46.308;4.600;2023-09-18T03:15:07;3.55;;;1.85;;
30543;SDS011;43388;46.308;4.600;2023-09-18T03:17:33;4.75;;;1.40;;
30543;SDS011;43388;46.308;4.600;2023-09-18T03:19:59;3.38;;;1.20;;
30543;SDS011;43388;46.308;4.600;2023-09-18T03:22:25;2.42;;;1.00;;
30543;SDS011;43388;46.308;4.600;2023-09-18T03:24:51;1.88;;;1.15;;
30543;SDS011;43388;46.308;4.600;2023-09-18T03:27:17;5.00;;;1.58;;
30543;SDS011;43388;46.308;4.600;2023-09-18T03:29:43;1.83;;;1.42;;
30543;SDS011;43388;46.308;4.600;2023-09-18T03:32:09;1.63;;;1.40;;
30543;SDS011;43388;46.308;4.600;2023-09-18T03:34:37;5.30;;;1.50;;
30543;SDS011;43388;46.308;4.600;2023-09-18T03:37:03;3.45;;;1.85;;
30543;SDS011;43388;46.308;4.600;2023-09-18T03:39:29;3.72;;;1.50;;
30543;SDS011;43388;46.308;4.600;2023-09-18T03:41:55;3.40;;;1.35;;
30543;SDS011;43388;46.308;4.600;2023-09-18T03:44:21;2.95;;;1.58;;
30543;SDS011;43388;46.308;4.600;2023-09-18T03:46:48;8.65;;;2.00;;
30543;SDS011;43388;46.308;4.600;2023-09-18T03:49:13;2.90;;;1.40;;
30543;SDS011;43388;46.308;4.600;2023-09-18T03:51:39;3.92;;;1.50;;
30543;SDS011;43388;46.308;4.600;2023-09-18T03:54:05;5.50;;;1.60;;
30543;SDS011;43388;46.308;4.600;2023-09-18T03:56:31;5.07;;;1.50;;
30543;SDS011;43388;46.308;4.600;2023-09-18T03:58:57;7.68;;;1.48;;
30543;SDS011;43388;46.308;4.600;2023-09-18T04:01:26;3.50;;;1.60;;
30543;SDS011;43388;46.308;4.600;2023-09-18T04:03:52;3.45;;;1.67;;
30543;SDS011;43388;46.308;4.600;2023-09-18T04:06:20;7.18;;;2.22;;
30543;SDS011;43388;46.308;4.600;2023-09-18T04:08:46;4.63;;;1.80;;
30543;SDS011;43388;46.308;4.600;2023-09-18T04:11:12;6.28;;;1.80;;
30543;SDS011;43388;46.308;4.600;2023-09-18T04:13:38;2.25;;;1.73;;
30543;SDS011;43388;46.308;4.600;2023-09-18T04:16:04;2.60;;;1.65;;
30543;SDS011;43388;46.308;4.600;2023-09-18T04:18:30;4.30;;;1.55;;
30543;SDS011;43388;46.308;4.600;2023-09-18T04:20:56;5.13;;;2.00;;
30543;SDS011;43388;46.308;4.600;2023-09-18T04:23:23;3.95;;;1.80;;
30543;SDS011;43388;46.308;4.600;2023-09-18T04:25:50;4.75;;;1.70;;
30543;SDS011;43388;46.308;4.600;2023-09-18T04:28:16;3.03;;;1.60;;
30543;SDS011;43388;46.308;4.600;2023-09-18T04:30:43;3.28;;;1.42;;
30543;SDS011;43388;46.308;4.600;2023-09-18T04:33:10;8.73;;;2.00;;
30543;SDS011;43388;46.308;4.600;2023-09-18T04:35:37;4.80;;;1.85;;
30543;SDS011;43388;46.308;4.600;2023-09-18T04:38:06;4.72;;;2.13;;
30543;SDS011;43388;46.308;4.600;2023-09-18T04:40:32;3.95;;;2.25;;
30543;SDS011;43388;46.308;4.600;2023-09-18T04:42:58;4.13;;;1.75;;
30543;SDS011;43388;46.308;4.600;2023-09-18T04:45:25;2.30;;;1.30;;
30543;SDS011;43388;46.308;4.600;2023-09-18T04:47:51;4.03;;;1.80;;
30543;SDS011;43388;46.308;4.600;2023-09-18T04:50:17;8.45;;;1.95;;
30543;SDS011;43388;46.308;4.600;2023-09-18T04:52:43;4.13;;;1.88;;
30543;SDS011;43388;46.308;4.600;2023-09-18T04:55:10;4.82;;;2.03;;
30543;SDS011;43388;46.308;4.600;2023-09-18T04:57:36;6.15;;;1.70;;
30543;SDS011;43388;46.308;4.600;2023-09-18T05:00:02;4.75;;;1.80;;
30543;SDS011;43388;46.308;4.600;2023-09-18T05:02:33;2.53;;;1.48;;
30543;SDS011;43388;46.308;4.600;2023-09-18T05:04:59;1.80;;;1.42;;
30543;SDS011;43388;46.308;4.600;2023-09-18T05:07:25;3.15;;;1.60;;
30543;SDS011;43388;46.308;4.600;2023-09-18T05:09:52;3.60;;;1.75;;
30543;SDS011;43388;46.308;4.600;2023-09-18T05:12:18;4.72;;;1.83;;
30543;SDS011;43388;46.308;4.600;2023-09-18T05:14:44;3.03;;;1.90;;
30543;SDS011;43388;46.308;4.600;2023-09-18T05:17:10;3.10;;;1.80;;
30543;SDS011;43388;46.308;4.600;2023-09-18T05:19:37;3.50;;;1.80;;
30543;SDS011;43388;46.308;4.600;2023-09-18T05:22:03;3.45;;;1.77;;
30543;SDS011;43388;46.308;4.600;2023-09-18T05:24:29;4.40;;;1.70;;
30543;SDS011;43388;46.308;4.600;2023-09-18T05:26:55;2.25;;;1.60;;
30543;SDS011;43388;46.308;4.600;2023-09-18T05:29:21;2.53;;;1.60;;
30543;SDS011;43388;46.308;4.600;2023-09-18T05:31:47;4.57;;;1.80;;
30543;SDS011;43388;46.308;4.600;2023-09-18T05:34:13;4.95;;;2.10;;
30543;SDS011;43388;46.308;4.600;2023-09-18T05:36:39;2.95;;;1.70;;
30543;SDS011;43388;46.308;4.600;2023-09-18T05:39:05;3.55;;;1.88;;
30543;SDS011;43388;46.308;4.600;2023-09-18T05:41:36;3.30;;;1.60;;
30543;SDS011;43388;46.308;4.600;2023-09-18T05:44:02;5.93;;;1.85;;
30543;SDS011;43388;46.308;4.600;2023-09-18T05:46:30;4.20;;;1.58;;
30543;SDS011;43388;46.308;4.600;2023-09-18T05:48:56;4.18;;;1.90;;
30543;SDS011;43388;46.308;4.600;2023-09-18T05:51:23;3.70;;;1.67;;
30543;SDS011;43388;46.308;4.600;2023-09-18T05:53:49;4.82;;;1.70;;
30543;SDS011;43388;46.308;4.600;2023-09-18T05:56:15;5.63;;;1.95;;
30543;SDS011;43388;46.308;4.600;2023-09-18T05:58:42;4.28;;;1.90;;
30543;SDS011;43388;46.308;4.600;2023-09-18T06:01:08;2.70;;;1.80;;
30543;SDS011;43388;46.308;4.600;2023-09-18T06:03:34;3.15;;;2.10;;
30543;SDS011;43388;46.308;4.600;2023-09-18T06:06:10;5.32;;;1.83;;
30543;SDS011;43388;46.308;4.600;2023-09-18T06:08:36;5.65;;;2.00;;
30543;SDS011;43388;46.308;4.600;2023-09-18T06:11:02;2.80;;;2.00;;
30543;SDS011;43388;46.308;4.600;2023-09-18T06:13:28;3.15;;;1.85;;
30543;SDS011;43388;46.308;4.600;2023-09-18T06:15:54;6.22;;;2.00;;
30543;SDS011;43388;46.308;4.600;2023-09-18T06:18:21;5.90;;;2.25;;
30543;SDS011;43388;46.308;4.600;2023-09-18T06:20:48;3.72;;;1.92;;
30543;SDS011;43388;46.308;4.600;2023-09-18T06:23:14;8.82;;;2.38;;
30543;SDS011;43388;46.308;4.600;2023-09-18T06:25:40;4.38;;;1.85;;
30543;SDS011;43388;46.308;4.600;2023-09-18T06:28:06;4.50;;;1.95;;
30543;SDS011;43388;46.308;4.600;2023-09-18T06:30:32;5.00;;;2.10;;
30543;SDS011;43388;46.308;4.600;2023-09-18T06:33:02;7.53;;;2.13;;
30543;SDS011;43388;46.308;4.600;2023-09-18T06:35:32;7.55;;;2.47;;
30543;SDS011;43388;46.308;4.600;2023-09-18T06:37:58;3.83;;;1.90;;
30543;SDS011;43388;46.308;4.600;2023-09-18T06:40:24;9.15;;;3.15;;
30543;SDS011;43388;46.308;4.600;2023-09-18T06:42:51;4.90;;;2.17;;
30543;SDS011;43388;46.308;4.600;2023-09-18T06:45:17;4.68;;;2.65;;
30543;SDS011;43388;46.308;4.600;2023-09-18T06:47:43;5.88;;;2.47;;
30543;SDS011;43388;46.308;4.600;2023-09-18T06:50:09;6.88;;;3.80;;
30543;SDS011;43388;46.308;4.600;2023-09-18T06:52:37;4.85;;;2.70;;
30543;SDS011;43388;46.308;4.600;2023-09-18T06:55:03;2.97;;;1.88;;
30543;SDS011;43388;46.308;4.600;2023-09-18T06:57:30;9.27;;;2.55;;
30543;SDS011;43388;46.308;4.600;2023-09-18T06:59:56;4.93;;;2.50;;
30543;SDS011;43388;46.308;4.600;2023-09-18T07:02:22;7.22;;;2.40;;
30543;SDS011;43388;46.308;4.600;2023-09-18T07:04:48;5.78;;;1.80;;
30543;SDS011;43388;46.308;4.600;2023-09-18T07:07:14;4.10;;;2.47;;
30543;SDS011;43388;46.308;4.600;2023-09-18T07:09:41;5.88;;;2.40;;
30543;SDS011;43388;46.308;4.600;2023-09-18T07:12:08;2.67;;;2.05;;
30543;SDS011;43388;46.308;4.600;2023-09-18T07:14:36;7.47;;;2.60;;
30543;SDS011;43388;46.308;4.600;2023-09-18T07:17:03;15.07;;;2.78;;
30543;SDS011;43388;46.308;4.600;2023-09-18T07:19:29;7.30;;;2.70;;
30543;SDS011;43388;46.308;4.600;2023-09-18T07:21:55;6.85;;;3.83;;
30543;SDS011;43388;46.308;4.600;2023-09-18T07:24:21;5.97;;;2.20;;
30543;SDS011;43388;46.308;4.600;2023-09-18T07:26:47;4.18;;;2.13;;
30543;SDS011;43388;46.308;4.600;2023-09-18T07:29:14;9.93;;;3.08;;
30543;SDS011;43388;46.308;4.600;2023-09-18T07:31:40;7.22;;;2.47;;
30543;SDS011;43388;46.308;4.600;2023-09-18T07:34:07;14.43;;;2.22;;
30543;SDS011;43388;46.308;4.600;2023-09-18T07:36:33;7.13;;;2.22;;
30543;SDS011;43388;46.308;4.600;2023-09-18T07:38:59;7.65;;;2.10;;
30543;SDS011;43388;46.308;4.600;2023-09-18T07:41:25;9.88;;;2.53;;
30543;SDS011;43388;46.308;4.600;2023-09-18T07:43:51;5.70;;;2.33;;
30543;SDS011;43388;46.308;4.600;2023-09-18T07:46:17;4.72;;;2.50;;
30543;SDS011;43388;46.308;4.600;2023-09-18T07:48:43;7.70;;;2.55;;
30543;SDS011;43388;46.308;4.600;2023-09-18T07:51:12;6.47;;;2.67;;
30543;SDS011;43388;46.308;4.600;2023-09-18T07:53:39;4.18;;;2.75;;
30543;SDS011;43388;46.308;4.600;2023-09-18T07:56:05;8.18;;;2.88;;
30543;SDS011;43388;46.308;4.600;2023-09-18T07:58:31;7.60;;;3.03;;
30543;SDS011;43388;46.308;4.600;2023-09-18T08:00:58;3.75;;;2.40;;
30543;SDS011;43388;46.308;4.600;2023-09-18T08:03:27;8.85;;;3.15;;
30543;SDS011;43388;46.308;4.600;2023-09-18T08:05:54;4.43;;;2.90;;
30543;SDS011;43388;46.308;4.600;2023-09-18T08:08:20;7.65;;;3.05;;
30543;SDS011;43388;46.308;4.600;2023-09-18T08:10:50;5.18;;;3.20;;
30543;SDS011;43388;46.308;4.600;2023-09-18T08:13:16;8.23;;;3.47;;
30543;SDS011;43388;46.308;4.600;2023-09-18T08:15:43;10.32;;;4.18;;
30543;SDS011;43388;46.308;4.600;2023-09-18T08:18:09;5.55;;;3.90;;
30543;SDS011;43388;46.308;4.600;2023-09-18T08:20:36;7.70;;;3.35;;
30543;SDS011;43388;46.308;4.600;2023-09-18T08:23:02;6.20;;;3.40;;
30543;SDS011;43388;46.308;4.600;2023-09-18T08:25:30;5.82;;;3.70;;
30543;SDS011;43388;46.308;4.600;2023-09-18T08:27:56;7.40;;;3.60;;
30543;SDS011;43388;46.308;4.600;2023-09-18T08:30:22;7.88;;;4.43;;
30543;SDS011;43388;46.308;4.600;2023-09-18T08:32:49;10.25;;;3.80;;
30543;SDS011;43388;46.308;4.600;2023-09-18T08:35:15;7.55;;;4.10;;
30543;SDS011;43388;46.308;4.600;2023-09-18T08:37:41;8.43;;;4.43;;
30543;SDS011;43388;46.308;4.600;2023-09-18T08:40:09;6.70;;;3.70;;
30543;SDS011;43388;46.308;4.600;2023-09-18T08:42:36;5.68;;;3.53;;
30543;SDS011;43388;46.308;4.600;2023-09-18T08:45:05;5.50;;;3.80;;
30543;SDS011;43388;46.308;4.600;2023-09-18T08:47:34;5.05;;;3.78;;
30543;SDS011;43388;46.308;4.600;2023-09-18T08:50:00;8.25;;;4.63;;
30543;SDS011;43388;46.308;4.600;2023-09-18T08:52:27;5.90;;;3.55;;
30543;SDS011;43388;46.308;4.600;2023-09-18T08:54:53;5.22;;;3.58;;
30543;SDS011;43388;46.308;4.600;2023-09-18T08:57:21;7.05;;;2.95;;
30543;SDS011;43388;46.308;4.600;2023-09-18T08:59:47;7.15;;;3.60;;
30543;SDS011;43388;46.308;4.600;2023-09-18T09:02:14;6.68;;;3.42;;
30543;SDS011;43388;46.308;4.600;2023-09-18T09:04:40;7.45;;;3.75;;
30543;SDS011;43388;46.308;4.600;2023-09-18T09:07:06;5.45;;;3.45;;
30543;SDS011;43388;46.308;4.600;2023-09-18T09:09:32;7.32;;;3.53;;
30543;SDS011;43388;46.308;4.600;2023-09-18T09:11:59;5.57;;;3.40;;
30543;SDS011;43388;46.308;4.600;2023-09-18T09:14:25;10.80;;;3.95;;
30543;SDS011;43388;46.308;4.600;2023-09-18T09:16:54;11.43;;;7.35;;
30543;SDS011;43388;46.308;4.600;2023-09-18T09:19:30;8.32;;;5.20;;
30543;SDS011;43388;46.308;4.600;2023-09-18T09:21:57;4.85;;;3.90;;
30543;SDS011;43388;46.308;4.600;2023-09-18T09:24:37;7.70;;;4.65;;
30543;SDS011;43388;46.308;4.600;2023-09-18T09:27:03;5.57;;;3.95;;
30543;SDS011;43388;46.308;4.600;2023-09-18T09:29:29;4.30;;;3.80;;
30543;SDS011;43388;46.308;4.600;2023-09-18T09:31:56;8.85;;;3.90;;
30543;SDS011;43388;46.308;4.600;2023-09-18T09:34:26;7.88;;;3.90;;
30543;SDS011;43388;46.308;4.600;2023-09-18T09:36:53;6.45;;;4.22;;
30543;SDS011;43388;46.308;4.600;2023-09-18T09:39:19;6.15;;;4.13;;
30543;SDS011;43388;46.308;4.600;2023-09-18T09:41:46;6.88;;;4.00;;
30543;SDS011;43388;46.308;4.600;2023-09-18T09:44:13;8.00;;;3.58;;
30543;SDS011;43388;46.308;4.600;2023-09-18T09:46:46;5.85;;;3.97;;
30543;SDS011;43388;46.308;4.600;2023-09-18T09:49:13;8.50;;;3.63;;
30543;SDS011;43388;46.308;4.600;2023-09-18T09:51:40;8.07;;;3.58;;
30543;SDS011;43388;46.308;4.600;2023-09-18T09:54:07;6.40;;;3.55;;
30543;SDS011;43388;46.308;4.600;2023-09-18T09:59:12;6.72;;;3.15;;
30543;SDS011;43388;46.308;4.600;2023-09-18T10:01:39;10.05;;;3.63;;
30543;SDS011;43388;46.308;4.600;2023-09-18T10:04:13;7.90;;;2.88;;
30543;SDS011;43388;46.308;4.600;2023-09-18T10:06:43;7.78;;;2.88;;
30543;SDS011;43388;46.308;4.600;2023-09-18T10:09:12;3.50;;;2.50;;
30543;SDS011;43388;46.308;4.600;2023-09-18T10:11:43;7.20;;;2.50;;
30543;SDS011;43388;46.308;4.600;2023-09-18T10:14:18;5.43;;;2.63;;
30543;SDS011;43388;46.308;4.600;2023-09-18T10:16:45;5.78;;;2.97;;
30543;SDS011;43388;46.308;4.600;2023-09-18T10:19:25;5.47;;;3.00;;
30543;SDS011;43388;46.308;4.600;2023-09-18T10:24:27;4.72;;;2.35;;
30543;SDS011;43388;46.308;4.600;2023-09-18T10:29:22;4.97;;;2.72;;
30543;SDS011;43388;46.308;4.600;2023-09-18T10:31:52;4.65;;;2.40;;
30543;SDS011;43388;46.308;4.600;2023-09-18T10:34:19;2.85;;;2.35;;
30543;SDS011;43388;46.308;4.600;2023-09-18T10:36:46;3.72;;;2.53;;
30543;SDS011;43388;46.308;4.600;2023-09-18T10:39:13;4.53;;;2.33;;
30543;SDS011;43388;46.308;4.600;2023-09-18T10:41:48;5.43;;;2.50;;
30543;SDS011;43388;46.308;4.600;2023-09-18T10:44:15;3.90;;;2.40;;
30543;SDS011;43388;46.308;4.600;2023-09-18T10:46:43;6.65;;;2.05;;
30543;SDS011;43388;46.308;4.600;2023-09-18T10:49:09;3.25;;;2.35;;
30543;SDS011;43388;46.308;4.600;2023-09-18T10:51:36;4.60;;;2.35;;
30543;SDS011;43388;46.308;4.600;2023-09-18T10:54:07;4.72;;;2.50;;
30543;SDS011;43388;46.308;4.600;2023-09-18T10:56:33;5.32;;;2.65;;
30543;SDS011;43388;46.308;4.600;2023-09-18T10:59:00;2.80;;;2.30;;
30543;SDS011;43388;46.308;4.600;2023-09-18T11:01:28;3.60;;;2.25;;
30543;SDS011;43388;46.308;4.600;2023-09-18T11:03:58;5.63;;;2.28;;
30543;SDS011;43388;46.308;4.600;2023-09-18T11:06:25;4.10;;;2.22;;
30543;SDS011;43388;46.308;4.600;2023-09-18T11:08:56;4.35;;;2.03;;
30543;SDS011;43388;46.308;4.600;2023-09-18T11:11:26;4.60;;;2.22;;
30543;SDS011;43388;46.308;4.600;2023-09-18T11:13:55;5.97;;;2.08;;
30543;SDS011;43388;46.308;4.600;2023-09-18T11:21:24;4.38;;;2.30;;
30543;SDS011;43388;46.308;4.600;2023-09-18T11:24:00;3.13;;;2.00;;
30543;SDS011;43388;46.308;4.600;2023-09-18T11:26:29;3.15;;;2.03;;
30543;SDS011;43388;46.308;4.600;2023-09-18T11:28:58;5.30;;;2.20;;
30543;SDS011;43388;46.308;4.600;2023-09-18T11:31:41;7.45;;;2.47;;
30543;SDS011;43388;46.308;4.600;2023-09-18T11:36:36;6.40;;;2.75;;
30543;SDS011;43388;46.308;4.600;2023-09-18T11:39:02;5.15;;;2.80;;
30543;SDS011;43388;46.308;4.600;2023-09-18T11:41:35;6.25;;;2.78;;
30543;SDS011;43388;46.308;4.600;2023-09-18T11:46:45;7.30;;;2.45;;
30543;SDS011;43388;46.308;4.600;2023-09-18T11:49:12;5.88;;;2.90;;
30543;SDS011;43388;46.308;4.600;2023-09-18T11:51:39;4.05;;;2.63;;
30543;SDS011;43388;46.308;4.600;2023-09-18T11:54:05;7.75;;;2.58;;
30543;SDS011;43388;46.308;4.600;2023-09-18T11:56:34;6.80;;;2.50;;
30543;SDS011;43388;46.308;4.600;2023-09-18T11:59:01;6.55;;;2.30;;
30543;SDS011;43388;46.308;4.600;2023-09-18T12:01:30;8.50;;;2.50;;
30543;SDS011;43388;46.308;4.600;2023-09-18T12:04:02;3.08;;;2.30;;
30543;SDS011;43388;46.308;4.600;2023-09-18T12:06:38;5.30;;;2.67;;
30543;SDS011;43388;46.308;4.600;2023-09-18T12:09:05;6.43;;;2.47;;
30543;SDS011;43388;46.308;4.600;2023-09-18T12:11:32;6.13;;;2.60;;
30543;SDS011;43388;46.308;4.600;2023-09-18T12:14:00;5.40;;;2.42;;
30543;SDS011;43388;46.308;4.600;2023-09-18T12:16:27;7.28;;;2.97;;
30543;SDS011;43388;46.308;4.600;2023-09-18T12:18:53;3.67;;;2.30;;
30543;SDS011;43388;46.308;4.600;2023-09-18T12:21:19;8.63;;;2.38;;
30543;SDS011;43388;46.308;4.600;2023-09-18T12:23:45;3.83;;;2.47;;
30543;SDS011;43388;46.308;4.600;2023-09-18T12:26:12;4.95;;;2.60;;
30543;SDS011;43388;46.308;4.600;2023-09-18T12:28:39;6.85;;;2.63;;
30543;SDS011;43388;46.308;4.600;2023-09-18T12:31:06;4.40;;;2.45;;
30543;SDS011;43388;46.308;4.600;2023-09-18T12:33:35;7.38;;;3.10;;
30543;SDS011;43388;46.308;4.600;2023-09-18T12:36:05;4.72;;;2.78;;
30543;SDS011;43388;46.308;4.600;2023-09-18T12:38:31;2.90;;;2.40;;
30543;SDS011;43388;46.308;4.600;2023-09-18T12:40:58;6.00;;;2.88;;
30543;SDS011;43388;46.308;4.600;2023-09-18T12:43:40;4.53;;;2.97;;
30543;SDS011;43388;46.308;4.600;2023-09-18T12:46:06;7.25;;;2.67;;
30543;SDS011;43388;46.308;4.600;2023-09-18T12:48:37;5.63;;;3.00;;
30543;SDS011;43388;46.308;4.600;2023-09-18T12:51:06;5.35;;;2.50;;
30543;SDS011;43388;46.308;4.600;2023-09-18T12:53:33;4.00;;;2.55;;
30543;SDS011;43388;46.308;4.600;2023-09-18T12:56:09;3.88;;;2.92;;
30543;SDS011;43388;46.308;4.600;2023-09-18T12:58:35;4.05;;;2.33;;
30543;SDS011;43388;46.308;4.600;2023-09-18T13:01:05;4.88;;;2.38;;
30543;SDS011;43388;46.308;4.600;2023-09-18T13:03:33;3.65;;;2.20;;
30543;SDS011;43388;46.308;4.600;2023-09-18T13:06:06;3.97;;;2.40;;
30543;SDS011;43388;46.308;4.600;2023-09-18T13:08:33;4.53;;;2.35;;
30543;SDS011;43388;46.308;4.600;2023-09-18T13:11:01;5.32;;;1.95;;
30543;SDS011;43388;46.308;4.600;2023-09-18T13:13:31;3.53;;;2.35;;
30543;SDS011;43388;46.308;4.600;2023-09-18T13:15:58;4.97;;;2.40;;
30543;SDS011;43388;46.308;4.600;2023-09-18T13:18:25;4.63;;;1.92;;
30543;SDS011;43388;46.308;4.600;2023-09-18T13:20:51;3.20;;;2.60;;
30543;SDS011;43388;46.308;4.600;2023-09-18T13:23:18;5.82;;;2.38;;
30543;SDS011;43388;46.308;4.600;2023-09-18T13:25:44;5.53;;;2.30;;
30543;SDS011;43388;46.308;4.600;2023-09-18T13:28:12;4.32;;;2.72;;
30543;SDS011;43388;46.308;4.600;2023-09-18T13:30:39;3.33;;;1.90;;
30543;SDS011;43388;46.308;4.600;2023-09-18T13:35:32;7.07;;;2.55;;
30543;SDS011;43388;46.308;4.600;2023-09-18T13:37:59;4.55;;;2.10;;
30543;SDS011;43388;46.308;4.600;2023-09-18T13:40:25;3.75;;;2.22;;
30543;SDS011;43388;46.308;4.600;2023-09-18T13:42:51;4.78;;;2.40;;
30543;SDS011;43388;46.308;4.600;2023-09-18T13:45:17;3.65;;;2.22;;
30543;SDS011;43388;46.308;4.600;2023-09-18T13:47:43;6.38;;;2.65;;
30543;SDS011;43388;46.308;4.600;2023-09-18T13:50:10;5.90;;;2.47;;
30543;SDS011;43388;46.308;4.600;2023-09-18T13:52:38;3.67;;;2.28;;
30543;SDS011;43388;46.308;4.600;2023-09-18T13:55:04;5.03;;;2.33;;
30543;SDS011;43388;46.308;4.600;2023-09-18T13:57:30;4.95;;;2.65;;
30543;SDS011;43388;46.308;4.600;2023-09-18T13:59:56;4.88;;;2.67;;
30543;SDS011;43388;46.308;4.600;2023-09-18T14:02:22;5.03;;;2.47;;
30543;SDS011;43388;46.308;4.600;2023-09-18T14:04:52;6.90;;;2.78;;
30543;SDS011;43388;46.308;4.600;2023-09-18T14:07:18;4.38;;;2.80;;
30543;SDS011;43388;46.308;4.600;2023-09-18T14:09:44;6.03;;;3.15;;
30543;SDS011;43388;46.308;4.600;2023-09-18T14:12:13;6.53;;;3.15;;
30543;SDS011;43388;46.308;4.600;2023-09-18T14:14:41;5.78;;;3.25;;
30543;SDS011;43388;46.308;4.600;2023-09-18T14:17:07;14.63;;;3.25;;
30543;SDS011;43388;46.308;4.600;2023-09-18T14:19:33;5.43;;;2.78;;
30543;SDS011;43388;46.308;4.600;2023-09-18T14:22:00;8.18;;;2.90;;
30543;SDS011;43388;46.308;4.600;2023-09-18T14:24:30;4.93;;;3.30;;
30543;SDS011;43388;46.308;4.600;2023-09-18T14:26:56;5.63;;;2.83;;
30543;SDS011;43388;46.308;4.600;2023-09-18T14:29:22;7.32;;;2.83;;
30543;SDS011;43388;46.308;4.600;2023-09-18T14:31:48;5.38;;;3.40;;
30543;SDS011;43388;46.308;4.600;2023-09-18T14:34:15;7.63;;;2.47;;
30543;SDS011;43388;46.308;4.600;2023-09-18T14:36:41;7.63;;;3.65;;
30543;SDS011;43388;46.308;4.600;2023-09-18T14:39:07;3.28;;;2.42;;
30543;SDS011;43388;46.308;4.600;2023-09-18T14:41:36;4.53;;;3.10;;
30543;SDS011;43388;46.308;4.600;2023-09-18T14:44:06;8.57;;;3.38;;
30543;SDS011;43388;46.308;4.600;2023-09-18T14:46:33;6.22;;;3.20;;
30543;SDS011;43388;46.308;4.600;2023-09-18T14:49:00;6.82;;;3.10;;
30543;SDS011;43388;46.308;4.600;2023-09-18T14:51:29;6.15;;;3.58;;
30543;SDS011;43388;46.308;4.600;2023-09-18T14:53:56;7.13;;;3.30;;
30543;SDS011;43388;46.308;4.600;2023-09-18T14:56:22;9.20;;;2.97;;
30543;SDS011;43388;46.308;4.600;2023-09-18T14:58:48;3.50;;;2.83;;
30543;SDS011;43388;46.308;4.600;2023-09-18T15:01:16;5.82;;;3.53;;
30543;SDS011;43388;46.308;4.600;2023-09-18T15:03:42;5.22;;;3.20;;
30543;SDS011;43388;46.308;4.600;2023-09-18T15:06:09;11.27;;;3.90;;
30543;SDS011;43388;46.308;4.600;2023-09-18T15:08:36;9.95;;;3.30;;
30543;SDS011;43388;46.308;4.600;2023-09-18T15:11:02;6.35;;;3.53;;
30543;SDS011;43388;46.308;4.600;2023-09-18T15:13:31;5.70;;;3.88;;